ICAO code: LHPR | IATA code: QGY | SITA: QGYAPXH | AFTN: LHPRZPZX

Időjárási adatok

METAR LHPR 050315Z AUTO 33018KT CAVOK M02/M07 Q1033=
TAF LHPR 050215Z 0503/0512 34012KT CAVOK
TEMPO 0503/0512 SCT040
BECMG 0507/0510 35015G25KT=
Nem volt érdemleges időjárási jelenség az elmúlt órában
2023-02-05 03:20:00 UTC
-

Hőmérséklet
°C
 
Harmatpont
°C
 
Rel. páratartalom
%
 
QNH
hPa
 
Szélsebesség
m/s
Max
m/s
Szélirány
°
 
Csapadék (1 óra)
mm
 
Látótávolság
m
 
RVR
>1500 m RWY30
 
1. felhőréteg mennyisége
octa
 
1. felhőréteg alapja
m